createdAt,value
2019-04-23T00:01:07.543Z,2.90
2019-04-23T00:03:30.221Z,2.57
2019-04-23T00:06:12.089Z,4.10
2019-04-23T00:08:36.238Z,3.80
2019-04-23T00:11:06.038Z,4.10
2019-04-23T00:13:39.354Z,2.20
2019-04-23T00:16:18.689Z,3.13
2019-04-23T00:18:46.529Z,4.23
2019-04-23T00:21:26.679Z,4.67
2019-04-23T00:24:03.009Z,6.93
2019-04-23T00:29:00.533Z,4.43
2019-04-23T00:31:29.560Z,4.90
2019-04-23T00:33:57.265Z,2.20
2019-04-23T00:38:50.057Z,3.83
2019-04-23T00:41:30.872Z,4.10
2019-04-23T00:46:31.503Z,5.47
2019-04-23T00:51:33.079Z,4.83
2019-04-23T00:54:01.507Z,3.77
2019-04-23T00:56:42.192Z,3.70
2019-04-23T00:59:00.714Z,2.53
2019-04-23T01:01:36.833Z,6.00
2019-04-23T01:04:02.340Z,4.00
2019-04-23T01:06:28.826Z,3.90
2019-04-23T01:09:03.853Z,8.40
2019-04-23T01:11:32.342Z,3.70
2019-04-23T01:14:01.018Z,3.67
2019-04-23T01:16:28.738Z,5.28
2019-04-23T01:19:24.835Z,6.87
2019-04-23T01:21:32.642Z,4.97
2019-04-23T01:24:21.944Z,4.70
2019-04-23T01:30:05.056Z,4.07
2019-04-23T01:32:35.042Z,5.27
2019-04-23T01:35:15.343Z,5.70
2019-04-23T01:37:39.764Z,3.27
2019-04-23T01:40:04.284Z,7.50
2019-04-23T01:42:43.938Z,4.20
2019-04-23T01:45:11.752Z,6.43
2019-04-23T01:47:38.826Z,3.63
2019-04-23T01:50:08.237Z,4.93
2019-04-23T01:52:43.043Z,5.53
2019-04-23T01:55:09.996Z,4.70
2019-04-23T01:57:37.725Z,6.07
2019-04-23T02:00:14.077Z,5.00
2019-04-23T02:02:43.096Z,3.92
2019-04-23T02:05:14.155Z,3.63
2019-04-23T02:07:44.348Z,7.10
2019-04-23T02:10:14.603Z,5.67
2019-04-23T02:12:46.450Z,6.63
2019-04-23T02:15:13.769Z,6.20
2019-04-23T02:17:38.005Z,4.53
2019-04-23T02:20:14.155Z,3.93
2019-04-23T02:22:58.668Z,5.00
2019-04-23T02:25:40.829Z,5.57
2019-04-23T02:30:54.942Z,8.03
2019-04-23T02:40:46.688Z,7.03
2019-04-23T02:45:52.100Z,5.25
2019-04-23T02:54:00.615Z,6.67
2019-04-23T02:58:19.097Z,6.53
2019-04-23T03:08:20.312Z,4.20
2019-04-23T03:10:51.529Z,4.20
2019-04-23T03:13:28.749Z,3.20
2019-04-23T03:16:00.865Z,5.40
2019-04-23T03:23:46.698Z,5.77
2019-04-23T03:26:19.969Z,5.43
2019-04-23T03:28:43.687Z,5.10
2019-04-23T03:43:41.243Z,4.87
2019-04-23T03:51:11.301Z,7.57
2019-04-23T03:54:08.548Z,6.80
2019-04-23T03:56:41.594Z,3.13
2019-04-23T03:58:42.596Z,5.43
2019-04-23T04:01:27.936Z,4.53
2019-04-23T04:04:14.727Z,5.37
2019-04-23T04:08:56.777Z,7.62
2019-04-23T04:13:55.424Z,4.25
2019-04-23T04:23:53.509Z,8.15
2019-04-23T04:26:21.109Z,4.00
2019-04-23T04:31:16.187Z,4.67
2019-04-23T04:34:03.137Z,4.03
2019-04-23T04:38:46.731Z,6.13
2019-04-23T04:48:50.679Z,5.70
2019-04-23T04:51:32.743Z,5.03
2019-04-23T05:01:25.858Z,5.63
2019-04-23T05:03:45.880Z,7.40
2019-04-23T05:08:54.659Z,6.97
2019-04-23T05:13:52.448Z,5.47
2019-04-23T05:16:24.291Z,6.13
2019-04-23T05:18:53.726Z,6.90
2019-04-23T05:21:21.419Z,6.03
2019-04-23T05:41:30.411Z,7.27
2019-04-23T05:43:55.833Z,5.10
2019-04-23T05:46:29.851Z,6.70
2019-04-23T05:48:53.216Z,8.77
2019-04-23T05:51:33.513Z,8.27
2019-04-23T05:53:52.575Z,6.40
2019-04-23T05:56:20.877Z,8.07
2019-04-23T05:58:58.144Z,5.40
2019-04-23T06:04:03.925Z,5.90
2019-04-23T06:06:38.018Z,8.83
2019-04-23T06:09:03.454Z,6.70
2019-04-23T06:11:36.987Z,11.77
2019-04-23T06:16:36.159Z,7.87
2019-04-23T06:19:02.705Z,8.97
2019-04-23T06:21:34.701Z,8.27
2019-04-23T06:26:47.489Z,9.80
2019-04-23T06:29:05.351Z,8.30
2019-04-23T06:31:32.553Z,8.23
2019-04-23T06:34:03.812Z,8.10
2019-04-23T06:36:35.616Z,6.33
2019-04-23T06:38:55.811Z,7.20
2019-04-23T06:41:37.531Z,6.43
2019-04-23T06:44:18.094Z,8.98
2019-04-23T06:46:39.457Z,7.23
2019-04-23T06:49:02.403Z,6.93
2019-04-23T06:51:37.809Z,8.43
2019-04-23T06:54:04.891Z,8.87
2019-04-23T06:59:07.090Z,8.13
2019-04-23T07:01:35.839Z,7.73
2019-04-23T07:04:05.150Z,12.30
2019-04-23T07:06:56.775Z,7.17
2019-04-23T07:11:33.829Z,6.53
2019-04-23T07:14:12.416Z,7.63
2019-04-23T07:16:32.891Z,9.90
2019-04-23T07:19:09.501Z,8.53
2019-04-23T07:21:50.839Z,7.57
2019-04-23T07:24:08.513Z,6.90
2019-04-23T07:29:31.362Z,7.17
2019-04-23T07:36:44.681Z,7.53
2019-04-23T07:41:56.798Z,6.13
2019-04-23T07:44:42.569Z,8.47
2019-04-23T07:49:49.336Z,8.00
2019-04-23T07:52:21.812Z,7.43
2019-04-23T07:54:56.761Z,11.50
2019-04-23T07:57:19.881Z,8.60
2019-04-23T07:59:59.192Z,7.70
2019-04-23T08:02:19.396Z,7.13
2019-04-23T08:05:00.849Z,8.70
2019-04-23T08:07:19.837Z,8.07
2019-04-23T08:09:53.625Z,7.72
2019-04-23T08:14:55.304Z,9.95
2019-04-23T08:17:20.929Z,9.47
2019-04-23T08:19:56.151Z,10.28
2019-04-23T08:22:36.952Z,7.47
2019-04-23T08:27:22.486Z,10.20
2019-04-23T08:29:49.420Z,8.05
2019-04-23T08:35:06.396Z,9.03
2019-04-23T08:39:57.106Z,8.70
2019-04-23T08:48:12.397Z,9.38
2019-04-23T08:50:32.702Z,9.37
2019-04-23T08:53:06.984Z,12.10
2019-04-23T08:55:38.438Z,9.47
2019-04-23T08:58:01.547Z,11.97
2019-04-23T09:00:35.467Z,14.17
2019-04-23T09:03:04.974Z,9.07
2019-04-23T09:08:07.144Z,11.37
2019-04-23T09:10:36.030Z,10.07
2019-04-23T09:13:32.171Z,12.57
2019-04-23T09:15:38.933Z,9.70
2019-04-23T09:18:10.882Z,9.23
2019-04-23T09:20:30.655Z,10.47
2019-04-23T09:23:04.155Z,8.70
2019-04-23T09:25:46.502Z,10.38
2019-04-23T09:28:08.542Z,13.33
2019-04-23T09:30:42.926Z,12.82
2019-04-23T09:33:13.678Z,11.87
2019-04-23T09:35:53.998Z,10.63
2019-04-23T09:38:25.192Z,10.17
2019-04-23T09:44:02.757Z,11.97
2019-04-23T09:46:36.165Z,12.13
2019-04-23T09:51:36.707Z,13.97
2019-04-23T09:54:09.531Z,14.83
2019-04-23T09:59:15.705Z,9.63
2019-04-23T10:01:32.897Z,12.40
2019-04-23T10:03:57.711Z,11.23
2019-04-23T10:06:20.297Z,12.83
2019-04-23T10:08:49.465Z,11.13
2019-04-23T10:11:13.823Z,11.53
2019-04-23T10:13:42.950Z,11.87
2019-04-23T10:16:15.347Z,11.28
2019-04-23T10:18:41.860Z,9.03
2019-04-23T10:21:11.194Z,11.17
2019-04-23T10:23:41.268Z,11.03
2019-04-23T10:26:10.131Z,10.43
2019-04-23T10:28:42.065Z,14.20
2019-04-23T10:31:12.507Z,13.17
2019-04-23T10:33:42.096Z,10.13
2019-04-23T10:36:13.664Z,10.60
2019-04-23T10:38:49.426Z,11.40
2019-04-23T10:41:14.156Z,13.37
2019-04-23T10:43:46.751Z,11.33
2019-04-23T10:46:53.177Z,11.23
2019-04-23T10:52:20.192Z,12.50
2019-04-23T10:54:41.431Z,14.13
2019-04-23T10:57:13.100Z,9.67
2019-04-23T11:04:54.209Z,10.70
2019-04-23T11:07:28.495Z,11.60
2019-04-23T11:09:56.974Z,13.13
2019-04-23T11:17:45.962Z,9.47
2019-04-23T11:25:26.596Z,11.93
2019-04-23T11:30:31.341Z,15.63
2019-04-23T11:35:23.826Z,11.03
2019-04-23T11:38:23.608Z,10.72
2019-04-23T11:40:23.299Z,12.27
2019-04-23T11:42:58.004Z,10.60
2019-04-23T11:45:50.300Z,15.00
2019-04-23T11:50:38.025Z,11.30
2019-04-23T11:53:06.769Z,14.30
2019-04-23T11:55:32.770Z,14.47
2019-04-23T11:58:04.908Z,9.87
2019-04-23T12:00:38.574Z,15.03
2019-04-23T12:03:26.643Z,11.90
2019-04-23T12:06:09.473Z,12.97
2019-04-23T12:08:28.235Z,10.73
2019-04-23T12:11:00.261Z,15.28
2019-04-23T12:13:28.544Z,10.67
2019-04-23T12:18:28.660Z,11.53
2019-04-23T12:21:04.758Z,8.97
2019-04-23T12:23:41.065Z,12.30
2019-04-23T12:26:13.528Z,13.30
2019-04-23T12:28:40.568Z,11.33
2019-04-23T12:31:09.298Z,11.57
2019-04-23T12:36:35.534Z,10.90
2019-04-23T12:39:01.036Z,12.10
2019-04-23T12:41:27.113Z,14.37
2019-04-23T12:43:53.247Z,14.17
2019-04-23T12:46:29.949Z,10.70
2019-04-23T12:49:21.686Z,11.80
2019-04-23T12:51:34.572Z,11.87
2019-04-23T12:53:48.477Z,12.57
2019-04-23T12:56:31.466Z,9.87
2019-04-23T12:58:44.990Z,9.47
2019-04-23T13:01:22.668Z,10.37
2019-04-23T13:03:45.959Z,9.53
2019-04-23T13:06:20.670Z,11.60
2019-04-23T13:08:52.316Z,11.43
2019-04-23T13:11:33.336Z,10.50
2019-04-23T13:13:58.677Z,11.83
2019-04-23T13:19:03.578Z,12.60
2019-04-23T13:23:55.597Z,9.90
2019-04-23T13:26:30.905Z,10.73
2019-04-23T13:29:06.234Z,10.03
2019-04-23T13:31:30.051Z,8.47
2019-04-23T13:33:58.475Z,10.97
2019-04-23T13:36:36.245Z,10.63
2019-04-23T13:39:02.075Z,10.10
2019-04-23T13:41:33.489Z,11.17
2019-04-23T13:43:54.853Z,11.90
2019-04-23T13:46:35.950Z,10.00
2019-04-23T13:49:03.890Z,10.43
2019-04-23T13:51:31.453Z,12.40
2019-04-23T13:54:15.832Z,13.67
2019-04-23T13:56:49.262Z,10.97
2019-04-23T13:59:31.337Z,9.37
2019-04-23T14:01:54.513Z,12.00
2019-04-23T14:04:30.827Z,10.37
2019-04-23T14:06:41.915Z,9.13
2019-04-23T14:09:20.071Z,11.10
2019-04-23T14:11:42.505Z,8.08
2019-04-23T14:14:26.662Z,10.10
2019-04-23T14:17:04.927Z,10.08
2019-04-23T14:19:16.524Z,9.90
2019-04-23T14:21:52.341Z,9.83
2019-04-23T14:24:46.249Z,10.43
2019-04-23T14:26:46.265Z,11.20
2019-04-23T14:29:21.683Z,10.87
2019-04-23T14:31:54.102Z,10.47
2019-04-23T14:34:17.810Z,8.27
2019-04-23T14:36:57.570Z,10.97
2019-04-23T14:39:24.065Z,9.43
2019-04-23T14:42:03.792Z,10.20
2019-04-23T14:44:19.003Z,9.23
2019-04-23T14:47:03.503Z,8.83
2019-04-23T14:49:26.109Z,10.07
2019-04-23T14:52:00.156Z,11.10
2019-04-23T14:57:09.882Z,10.80
2019-04-23T14:59:32.547Z,10.97
2019-04-23T15:02:05.284Z,11.53
2019-04-23T15:04:39.796Z,11.90
2019-04-23T15:07:10.945Z,14.47
2019-04-23T15:14:46.513Z,10.17
2019-04-23T15:17:13.068Z,11.00
2019-04-23T15:19:59.950Z,10.90
2019-04-23T15:22:16.781Z,11.00
2019-04-23T15:27:38.566Z,9.87
2019-04-23T15:27:59.322Z,11.60
2019-04-23T15:29:33.713Z,10.37
2019-04-23T15:32:35.019Z,9.60
2019-04-23T15:34:37.664Z,9.07
2019-04-23T15:37:45.155Z,16.23
2019-04-23T15:39:49.545Z,10.40
2019-04-23T15:44:49.003Z,12.13
2019-04-23T15:47:19.944Z,11.67
2019-04-23T15:49:51.477Z,10.90
2019-04-23T15:54:50.906Z,13.17
2019-04-23T15:57:18.129Z,9.73
2019-04-23T15:59:51.983Z,11.50
2019-04-23T16:01:49.613Z,12.40
2019-04-23T16:04:20.096Z,12.82
2019-04-23T16:06:49.392Z,9.67
2019-04-23T16:09:49.337Z,12.45
2019-04-23T16:12:09.746Z,10.17
2019-04-23T16:14:58.508Z,12.80
2019-04-23T16:17:24.475Z,13.17
2019-04-23T16:20:00.169Z,12.82
2019-04-23T16:22:20.400Z,9.53
2019-04-23T16:25:03.555Z,9.97
2019-04-23T16:27:17.003Z,12.57
2019-04-23T16:30:05.164Z,11.73
2019-04-23T16:32:55.982Z,13.63
2019-04-23T16:35:14.152Z,10.55
2019-04-23T16:37:39.128Z,11.03
2019-04-23T16:40:10.395Z,11.17
2019-04-23T16:45:12.483Z,10.07
2019-04-23T16:50:14.252Z,14.37
2019-04-23T16:52:32.371Z,12.10
2019-04-23T16:55:07.046Z,11.57
2019-04-23T16:57:43.459Z,10.03
2019-04-23T17:02:38.722Z,13.83
2019-04-23T17:05:16.492Z,22.23
2019-04-23T17:07:37.667Z,12.83
2019-04-23T17:10:19.463Z,12.30
2019-04-23T17:12:35.576Z,10.83
2019-04-23T17:15:09.392Z,12.90
2019-04-23T17:17:33.980Z,11.83
2019-04-23T17:20:10.800Z,11.87
2019-04-23T17:22:39.287Z,14.40
2019-04-23T17:25:15.632Z,10.83
2019-04-23T17:27:41.636Z,11.80
2019-04-23T17:30:12.042Z,15.00
2019-04-23T17:32:44.852Z,10.88
2019-04-23T17:35:27.425Z,10.80
2019-04-23T17:37:55.893Z,14.23
2019-04-23T17:42:56.962Z,9.65
2019-04-23T17:45:32.369Z,11.00
2019-04-23T17:48:11.476Z,9.87
2019-04-23T17:56:06.295Z,12.85
2019-04-23T17:58:24.767Z,14.07
2019-04-23T18:01:07.223Z,13.33
2019-04-23T18:03:23.747Z,10.43
2019-04-23T18:06:11.927Z,10.78
2019-04-23T18:08:45.827Z,12.73
2019-04-23T18:13:22.448Z,13.03
2019-04-23T18:16:04.051Z,17.17
2019-04-23T18:18:33.446Z,10.70
2019-04-23T18:21:03.453Z,13.97
2019-04-23T18:23:32.367Z,14.23
2019-04-23T18:26:04.942Z,13.17
2019-04-23T18:28:42.315Z,12.37
2019-04-23T18:31:13.150Z,11.63
2019-04-23T18:36:08.141Z,15.97
2019-04-23T18:38:39.391Z,13.53
2019-04-23T18:43:59.228Z,17.77
2019-04-23T18:46:16.353Z,18.07
2019-04-23T18:51:05.252Z,12.67
2019-04-23T18:53:48.172Z,13.40
2019-04-23T18:59:00.418Z,12.90
2019-04-23T19:01:25.370Z,17.32
2019-04-23T19:03:55.561Z,15.20
2019-04-23T19:09:12.179Z,15.35
2019-04-23T19:11:53.131Z,13.70
2019-04-23T19:14:23.729Z,14.73
2019-04-23T19:16:54.975Z,15.65
2019-04-23T19:19:25.007Z,19.00
2019-04-23T19:22:07.030Z,17.10
2019-04-23T19:24:15.819Z,14.53
2019-04-23T19:27:08.352Z,14.03
2019-04-23T19:29:21.358Z,16.43
2019-04-23T19:34:34.045Z,12.07
2019-04-23T19:36:59.062Z,17.93
2019-04-23T19:39:27.870Z,16.83
2019-04-23T19:44:24.260Z,15.10
2019-04-23T19:47:06.311Z,12.17
2019-04-23T19:49:28.891Z,15.60
2019-04-23T19:51:53.434Z,14.30
2019-04-23T19:59:35.952Z,12.80
2019-04-23T20:04:28.855Z,12.97
2019-04-23T20:07:12.276Z,15.03
2019-04-23T20:11:54.801Z,14.80
2019-04-23T20:14:26.267Z,13.53
2019-04-23T20:17:21.322Z,16.67
2019-04-23T20:19:31.664Z,18.43
2019-04-23T20:22:00.247Z,16.23
2019-04-23T20:31:44.984Z,18.10
2019-04-23T20:36:57.965Z,18.03
2019-04-23T20:39:41.971Z,12.90
2019-04-23T20:49:42.957Z,11.70
2019-04-23T20:52:07.265Z,14.50
2019-04-23T20:54:51.008Z,15.03
2019-04-23T21:00:01.550Z,13.97
2019-04-23T21:02:54.749Z,17.37
2019-04-23T21:07:52.610Z,12.68
2019-04-23T21:10:18.153Z,14.90
2019-04-23T21:12:51.189Z,16.03
2019-04-23T21:15:16.033Z,10.20
2019-04-23T21:20:17.809Z,11.63
2019-04-23T21:22:38.199Z,18.20
2019-04-23T21:25:00.093Z,16.20
2019-04-23T21:30:48.774Z,17.10
2019-04-23T21:33:05.376Z,16.50
2019-04-23T21:36:10.856Z,14.87
2019-04-23T21:38:47.526Z,16.17
2019-04-23T21:41:29.937Z,14.53
2019-04-23T21:46:30.696Z,18.80
2019-04-23T21:53:56.903Z,20.10
2019-04-23T22:01:32.317Z,13.23
2019-04-23T22:04:08.895Z,12.67
2019-04-23T22:16:35.629Z,20.80
2019-04-23T22:19:10.671Z,18.03
2019-04-23T22:29:16.532Z,23.03
2019-04-23T22:36:29.202Z,23.00
2019-04-23T22:39:03.470Z,26.53
2019-04-23T22:41:35.817Z,23.03
2019-04-23T22:46:48.157Z,17.80
2019-04-23T22:51:46.354Z,18.23
2019-04-23T22:54:11.808Z,22.33
2019-04-23T22:56:48.219Z,20.95
2019-04-23T22:59:18.264Z,22.03
2019-04-23T23:01:51.784Z,20.73
2019-04-23T23:04:23.695Z,25.07
2019-04-23T23:09:33.422Z,17.23
2019-04-23T23:11:49.767Z,25.02
2019-04-23T23:16:45.107Z,21.63
2019-04-23T23:21:58.160Z,21.20
2019-04-23T23:24:15.418Z,23.67
2019-04-23T23:26:50.388Z,23.93
2019-04-23T23:29:16.041Z,24.50
2019-04-23T23:31:54.227Z,23.50
2019-04-23T23:34:15.488Z,22.13
2019-04-23T23:36:54.331Z,26.95
2019-04-23T23:41:52.388Z,20.07
2019-04-23T23:44:35.180Z,21.83
2019-04-23T23:46:56.307Z,25.30
2019-04-23T23:49:18.867Z,22.27
2019-04-23T23:54:15.165Z,22.30
2019-04-23T23:56:58.762Z,23.57
2019-04-23T23:59:21.132Z,28.57
